sensor_id;sensor_type;location;lat;lon;timestamp;pressure;altitude;pressure_sealevel;temperature;humidity
73692;BME280;61996;49.910;35.562;2022-08-05T00:00:49;99261.09;;;22.64;81.42
73692;BME280;61996;49.910;35.562;2022-08-05T00:03:54;99260.13;;;22.57;79.58
73692;BME280;61996;49.910;35.562;2022-08-05T00:06:57;99258.84;;;22.84;80.23
73692;BME280;61996;49.910;35.562;2022-08-05T00:10:20;99253.34;;;22.86;77.35
73692;BME280;61996;49.910;35.562;2022-08-05T00:13:29;99259.91;;;22.75;78.46
73692;BME280;61996;49.910;35.562;2022-08-05T00:16:40;99260.13;;;22.57;80.99
73692;BME280;61996;49.910;35.562;2022-08-05T00:19:55;99261.78;;;22.58;81.07
73692;BME280;61996;49.910;35.562;2022-08-05T00:23:03;99258.13;;;22.51;82.16
73692;BME280;61996;49.910;35.562;2022-08-05T00:26:13;99250.41;;;22.56;80.51
73692;BME280;61996;49.910;35.562;2022-08-05T00:29:16;99250.06;;;22.59;80.38
73692;BME280;61996;49.910;35.562;2022-08-05T00:32:25;99249.72;;;22.62;78.94
73692;BME280;61996;49.910;35.562;2022-08-05T00:35:29;99244.94;;;22.81;77.83
73692;BME280;61996;49.910;35.562;2022-08-05T00:38:33;99246.84;;;22.72;78.54
73692;BME280;61996;49.910;35.562;2022-08-05T00:41:37;99254.06;;;22.63;78.07
73692;BME280;61996;49.910;35.562;2022-08-05T00:44:55;99257.44;;;22.57;78.02
73692;BME280;61996;49.910;35.562;2022-08-05T00:47:59;99256.41;;;22.58;78.65
73692;BME280;61996;49.910;35.562;2022-08-05T00:51:07;99257.25;;;22.59;77.27
73692;BME280;61996;49.910;35.562;2022-08-05T00:54:30;99253.63;;;22.43;78.78
73692;BME280;61996;49.910;35.562;2022-08-05T00:57:33;99265.19;;;22.36;78.85
73692;BME280;61996;49.910;35.562;2022-08-05T01:00:56;99253.94;;;22.49;78.92
73692;BME280;61996;49.910;35.562;2022-08-05T01:03:59;99250.59;;;22.38;79.11
73692;BME280;61996;49.910;35.562;2022-08-05T01:07:03;99258.66;;;22.47;78.83
73692;BME280;61996;49.910;35.562;2022-08-05T01:10:14;99252.13;;;22.41;78.66
73692;BME280;61996;49.910;35.562;2022-08-05T01:13:21;99258.28;;;22.50;77.88
73692;BME280;61996;49.910;35.562;2022-08-05T01:16:28;99260.00;;;22.42;78.40
73692;BME280;61996;49.910;35.562;2022-08-05T01:19:33;99277.41;;;22.38;77.74
73692;BME280;61996;49.910;35.562;2022-08-05T01:23:00;99274.25;;;22.35;78.65
73692;BME280;61996;49.910;35.562;2022-08-05T01:26:27;99260.19;;;22.33;78.04
73692;BME280;61996;49.910;35.562;2022-08-05T01:29:36;99269.41;;;22.22;78.88
73692;BME280;61996;49.910;35.562;2022-08-05T01:32:43;99275.72;;;22.37;77.47
73692;BME280;61996;49.910;35.562;2022-08-05T01:35:48;99269.06;;;22.33;78.20
73692;BME280;61996;49.910;35.562;2022-08-05T01:38:53;99272.50;;;22.58;76.69
73692;BME280;61996;49.910;35.562;2022-08-05T01:42:00;99278.78;;;22.26;77.07
73692;BME280;61996;49.910;35.562;2022-08-05T01:45:07;99277.41;;;22.30;78.01
73692;BME280;61996;49.910;35.562;2022-08-05T01:48:10;99271.03;;;22.31;77.65
73692;BME280;61996;49.910;35.562;2022-08-05T01:51:14;99267.22;;;22.34;77.86
73692;BME280;61996;49.910;35.562;2022-08-05T01:54:19;99272.41;;;22.35;77.17
73692;BME280;61996;49.910;35.562;2022-08-05T01:57:28;99272.06;;;22.30;77.96
73692;BME280;61996;49.910;35.562;2022-08-05T02:00:53;99271.03;;;22.31;76.52
73692;BME280;61996;49.910;35.562;2022-08-05T02:03:58;99277.56;;;22.37;77.15
73692;BME280;61996;49.910;35.562;2022-08-05T02:07:01;99273.03;;;22.54;75.40
73692;BME280;61996;49.910;35.562;2022-08-05T02:10:07;99268.03;;;22.34;76.88
73692;BME280;61996;49.910;35.562;2022-08-05T02:13:19;99262.16;;;22.39;77.60
73692;BME280;61996;49.910;35.562;2022-08-05T02:16:29;99267.38;;;22.32;76.93
73692;BME280;61996;49.910;35.562;2022-08-05T02:19:34;99263.69;;;22.25;77.51
73692;BME280;61996;49.910;35.562;2022-08-05T02:22:49;99263.69;;;22.41;76.62
73692;BME280;61996;49.910;35.562;2022-08-05T02:25:56;99259.00;;;22.35;77.62
73692;BME280;61996;49.910;35.562;2022-08-05T02:29:02;99250.78;;;22.37;77.67
73692;BME280;61996;49.910;35.562;2022-08-05T02:32:19;99245.44;;;22.37;76.37
73692;BME280;61996;49.910;35.562;2022-08-05T02:35:31;99254.97;;;22.31;76.55
73692;BME280;61996;49.910;35.562;2022-08-05T02:38:46;99257.19;;;22.28;76.44
73692;BME280;61996;49.910;35.562;2022-08-05T02:41:54;99261.19;;;22.24;76.87
73692;BME280;61996;49.910;35.562;2022-08-05T02:45:02;99258.53;;;22.15;76.21
73692;BME280;61996;49.910;35.562;2022-08-05T02:48:06;99260.69;;;22.28;77.08
73692;BME280;61996;49.910;35.562;2022-08-05T02:51:14;99267.72;;;22.29;75.71
73692;BME280;61996;49.910;35.562;2022-08-05T02:54:28;99256.31;;;22.35;77.06
73692;BME280;61996;49.910;35.562;2022-08-05T02:57:37;99264.56;;;22.26;77.87
73692;BME280;61996;49.910;35.562;2022-08-05T03:01:00;99262.34;;;22.29;76.22
73692;BME280;61996;49.910;35.562;2022-08-05T03:04:05;99259.63;;;22.54;76.18
73692;BME280;61996;49.910;35.562;2022-08-05T03:07:14;99269.34;;;22.55;75.11
73692;BME280;61996;49.910;35.562;2022-08-05T03:10:37;99260.47;;;22.54;74.84
73692;BME280;61996;49.910;35.562;2022-08-05T03:13:40;99264.31;;;22.52;75.35
73692;BME280;61996;49.910;35.562;2022-08-05T03:17:03;99269.16;;;22.56;74.97
73692;BME280;61996;49.910;35.562;2022-08-05T03:20:11;99276.66;;;22.77;73.89
73692;BME280;61996;49.910;35.562;2022-08-05T03:23:14;99279.84;;;22.64;74.67
73692;BME280;61996;49.910;35.562;2022-08-05T03:26:17;99270.66;;;22.67;74.47
73692;BME280;61996;49.910;35.562;2022-08-05T03:29:32;99281.13;;;22.93;73.96
73692;BME280;61996;49.910;35.562;2022-08-05T03:32:55;99269.09;;;23.20;71.54
73692;BME280;61996;49.910;35.562;2022-08-05T03:35:59;99269.06;;;23.28;70.33
73692;BME280;61996;49.910;35.562;2022-08-05T03:39:07;99277.09;;;23.28;70.30
73692;BME280;61996;49.910;35.562;2022-08-05T03:42:20;99277.16;;;23.20;70.50
73692;BME280;61996;49.910;35.562;2022-08-05T03:45:27;99273.78;;;23.26;70.07
73692;BME280;61996;49.910;35.562;2022-08-05T03:48:50;99269.69;;;23.38;69.47
73692;BME280;61996;49.910;35.562;2022-08-05T03:51:55;99268.44;;;23.49;68.56
73692;BME280;61996;49.910;35.562;2022-08-05T03:55:21;99270.97;;;23.50;68.21
73692;BME280;61996;49.910;35.562;2022-08-05T03:58:46;99267.28;;;23.43;68.21
73692;BME280;61996;49.910;35.562;2022-08-05T04:01:52;99274.34;;;23.44;68.29
73692;BME280;61996;49.910;35.562;2022-08-05T04:04:59;99272.56;;;23.60;67.90
73692;BME280;61996;49.910;35.562;2022-08-05T04:08:06;99272.56;;;23.60;67.33
73692;BME280;61996;49.910;35.562;2022-08-05T04:11:29;99278.00;;;23.51;67.78
73692;BME280;61996;49.910;35.562;2022-08-05T04:14:51;99271.75;;;23.59;67.22
73692;BME280;61996;49.910;35.562;2022-08-05T04:17:59;99275.22;;;23.68;66.88
73692;BME280;61996;49.910;35.562;2022-08-05T04:21:03;99279.66;;;23.52;67.62
73692;BME280;61996;49.910;35.562;2022-08-05T04:24:07;99275.09;;;23.61;67.21
73692;BME280;61996;49.910;35.562;2022-08-05T04:27:22;99280.59;;;23.68;67.04
73692;BME280;61996;49.910;35.562;2022-08-05T04:30:44;99278.16;;;23.81;66.77
73692;BME280;61996;49.910;35.562;2022-08-05T04:33:48;99286.47;;;23.71;66.95
73692;BME280;61996;49.910;35.562;2022-08-05T04:37:11;99290.84;;;23.87;66.37
73692;BME280;61996;49.910;35.562;2022-08-05T04:40:15;99294.59;;;23.78;66.93
73692;BME280;61996;49.910;35.562;2022-08-05T04:43:20;99307.31;;;23.84;66.47
73692;BME280;61996;49.910;35.562;2022-08-05T04:46:26;99302.56;;;23.94;66.43
73692;BME280;61996;49.910;35.562;2022-08-05T04:49:29;99299.69;;;23.96;66.04
73692;BME280;61996;49.910;35.562;2022-08-05T04:52:51;99296.22;;;23.87;66.54
73692;BME280;61996;49.910;35.562;2022-08-05T04:55:56;99295.16;;;23.96;66.28
73692;BME280;61996;49.910;35.562;2022-08-05T04:59:18;99285.28;;;24.12;65.48
73692;BME280;61996;49.910;35.562;2022-08-05T05:02:39;99285.28;;;24.12;65.24
73692;BME280;61996;49.910;35.562;2022-08-05T05:05:43;99283.06;;;24.15;65.67
73692;BME280;61996;49.910;35.562;2022-08-05T05:09:06;99291.84;;;24.09;65.71
73692;BME280;61996;49.910;35.562;2022-08-05T05:12:16;99284.00;;;24.22;65.60
73692;BME280;61996;49.910;35.562;2022-08-05T05:15:19;99275.75;;;24.24;65.57
73692;BME280;61996;49.910;35.562;2022-08-05T05:18:42;99272.34;;;24.30;65.15
73692;BME280;61996;49.910;35.562;2022-08-05T05:22:05;99271.19;;;24.47;64.47
73692;BME280;61996;49.910;35.562;2022-08-05T05:25:26;99275.28;;;24.43;64.71
73692;BME280;61996;49.910;35.562;2022-08-05T05:28:42;99279.25;;;24.47;64.44
73692;BME280;61996;49.910;35.562;2022-08-05T05:31:45;99281.09;;;24.47;64.24
73692;BME280;61996;49.910;35.562;2022-08-05T05:34:51;99287.16;;;24.64;63.87
73692;BME280;61996;49.910;35.562;2022-08-05T05:37:55;99285.56;;;24.54;64.30
73692;BME280;61996;49.910;35.562;2022-08-05T05:41:01;99274.75;;;24.63;63.89
73692;BME280;61996;49.910;35.562;2022-08-05T05:44:09;99274.81;;;24.54;64.61
73692;BME280;61996;49.910;35.562;2022-08-05T05:47:33;99281.78;;;24.64;64.33
73692;BME280;61996;49.910;35.562;2022-08-05T05:50:56;99274.94;;;24.76;63.84
73692;BME280;61996;49.910;35.562;2022-08-05T05:54:15;99293.06;;;24.88;63.23
73692;BME280;61996;49.910;35.562;2022-08-05T05:57:20;99284.28;;;24.80;63.83
73692;BME280;61996;49.910;35.562;2022-08-05T06:00:25;99282.41;;;24.80;64.97
73692;BME280;61996;49.910;35.562;2022-08-05T06:03:35;99300.41;;;24.95;63.57
73692;BME280;61996;49.910;35.562;2022-08-05T06:06:57;99292.13;;;24.96;64.11
73692;BME280;61996;49.910;35.562;2022-08-05T06:10:02;99294.84;;;24.96;63.99
73692;BME280;61996;49.910;35.562;2022-08-05T06:13:10;99294.84;;;24.96;65.04
73692;BME280;61996;49.910;35.562;2022-08-05T06:16:15;99303.13;;;25.09;63.40
73692;BME280;61996;49.910;35.562;2022-08-05T06:19:32;99315.56;;;25.10;63.61
73692;BME280;61996;49.910;35.562;2022-08-05T06:22:36;99312.50;;;25.13;63.52
73692;BME280;61996;49.910;35.562;2022-08-05T06:25:42;99309.53;;;25.08;63.82
73692;BME280;61996;49.910;35.562;2022-08-05T06:29:05;99325.56;;;25.17;63.52
73692;BME280;61996;49.910;35.562;2022-08-05T06:32:30;99331.50;;;25.27;62.99
73692;BME280;61996;49.910;35.562;2022-08-05T06:35:33;99333.06;;;25.36;62.85
73692;BME280;61996;49.910;35.562;2022-08-05T06:38:56;99335.84;;;25.28;62.92
73692;BME280;61996;49.910;35.562;2022-08-05T06:41:59;99333.88;;;25.36;62.79
73692;BME280;61996;49.910;35.562;2022-08-05T06:45:05;99342.03;;;25.43;63.02
73692;BME280;61996;49.910;35.562;2022-08-05T06:48:10;99337.06;;;25.40;62.99
73692;BME280;61996;49.910;35.562;2022-08-05T06:51:33;99345.47;;;25.37;63.00
73692;BME280;61996;49.910;35.562;2022-08-05T06:54:41;99343.63;;;25.52;62.42
73692;BME280;61996;49.910;35.562;2022-08-05T06:57:52;99351.69;;;25.52;62.53
73692;BME280;61996;49.910;35.562;2022-08-05T07:01:15;99350.69;;;25.53;62.49
73692;BME280;61996;49.910;35.562;2022-08-05T07:04:23;99359.91;;;25.65;62.10
73692;BME280;61996;49.910;35.562;2022-08-05T07:07:26;99356.38;;;25.65;62.27
73692;BME280;61996;49.910;35.562;2022-08-05T07:10:44;99355.00;;;25.69;62.41
73692;BME280;61996;49.910;35.562;2022-08-05T07:13:54;99363.25;;;25.67;61.83
73692;BME280;61996;49.910;35.562;2022-08-05T07:17:30;99362.16;;;25.77;62.15
73692;BME280;61996;49.910;35.562;2022-08-05T07:20:54;99363.81;;;25.63;62.92
73692;BME280;61996;49.910;35.562;2022-08-05T07:23:57;99365.22;;;25.59;63.58
73692;BME280;61996;49.910;35.562;2022-08-05T07:27:01;99371.25;;;25.76;64.52
73692;BME280;61996;49.910;35.562;2022-08-05T07:30:09;99362.38;;;25.96;62.30
73692;BME280;61996;49.910;35.562;2022-08-05T07:33:25;99371.69;;;25.94;61.42
73692;BME280;61996;49.910;35.562;2022-08-05T07:36:39;99376.53;;;25.84;62.23
73692;BME280;61996;49.910;35.562;2022-08-05T07:39:42;99378.22;;;25.55;62.65
73692;BME280;61996;49.910;35.562;2022-08-05T07:43:04;99382.22;;;25.74;62.34
73692;BME280;61996;49.910;35.562;2022-08-05T07:46:21;99385.16;;;26.15;59.94
73692;BME280;61996;49.910;35.562;2022-08-05T07:49:26;99381.50;;;26.23;60.45
73692;BME280;61996;49.910;35.562;2022-08-05T07:52:30;99381.78;;;26.56;58.87
73692;BME280;61996;49.910;35.562;2022-08-05T07:55:37;99378.56;;;26.67;58.10
73692;BME280;61996;49.910;35.562;2022-08-05T07:58:59;99379.31;;;26.55;58.97
73692;BME280;61996;49.910;35.562;2022-08-05T08:02:02;99374.16;;;26.88;58.24
73692;BME280;61996;49.910;35.562;2022-08-05T08:05:05;99374.94;;;26.82;58.13
73692;BME280;61996;49.910;35.562;2022-08-05T08:08:13;99370.25;;;26.97;57.57
73692;BME280;61996;49.910;35.562;2022-08-05T08:11:16;99370.47;;;26.95;57.84
73692;BME280;61996;49.910;35.562;2022-08-05T08:14:28;99378.72;;;26.87;57.83
73692;BME280;61996;49.910;35.562;2022-08-05T08:17:31;99379.09;;;26.84;57.30
73692;BME280;61996;49.910;35.562;2022-08-05T08:20:35;99377.44;;;26.83;56.77
73692;BME280;61996;49.910;35.562;2022-08-05T08:23:59;99380.97;;;26.84;56.76
73692;BME280;61996;49.910;35.562;2022-08-05T08:27:07;99383.09;;;26.88;56.82
73692;BME280;61996;49.910;35.562;2022-08-05T08:30:10;99386.59;;;26.89;57.76
73692;BME280;61996;49.910;35.562;2022-08-05T08:33:33;99388.78;;;27.00;56.98
73692;BME280;61996;49.910;35.562;2022-08-05T08:36:38;99391.72;;;27.05;56.33
73692;BME280;61996;49.910;35.562;2022-08-05T08:39:54;99389.50;;;27.15;56.08
73692;BME280;61996;49.910;35.562;2022-08-05T08:42:57;99396.63;;;27.23;55.63
73692;BME280;61996;49.910;35.562;2022-08-05T08:46:20;99396.53;;;27.51;55.47
73692;BME280;61996;49.910;35.562;2022-08-05T08:49:26;99399.69;;;27.54;55.25
73692;BME280;61996;49.910;35.562;2022-08-05T08:52:51;99399.38;;;27.77;54.30
73692;BME280;61996;49.910;35.562;2022-08-05T08:55:57;99400.63;;;27.81;54.13
73692;BME280;61996;49.910;35.562;2022-08-05T08:59:05;99399.38;;;27.77;53.97
73692;BME280;61996;49.910;35.562;2022-08-05T09:02:21;99400.47;;;27.42;55.69
73692;BME280;61996;49.910;35.562;2022-08-05T09:05:27;99405.38;;;27.73;55.25
73692;BME280;61996;49.910;35.562;2022-08-05T09:08:50;99405.19;;;27.81;54.45
73692;BME280;61996;49.910;35.562;2022-08-05T09:11:54;99412.50;;;27.87;54.30
73692;BME280;61996;49.910;35.562;2022-08-05T09:15:13;99410.59;;;27.74;54.31
73692;BME280;61996;49.910;35.562;2022-08-05T09:18:16;99422.28;;;27.47;55.28
73692;BME280;61996;49.910;35.562;2022-08-05T09:21:19;99416.13;;;27.25;55.63
73692;BME280;61996;49.910;35.562;2022-08-05T09:24:46;99409.94;;;27.03;56.83
73692;BME280;61996;49.910;35.562;2022-08-05T09:28:06;99407.03;;;29.79;49.23
73692;BME280;61996;49.910;35.562;2022-08-05T09:31:14;99411.78;;;27.65;55.13
73692;BME280;61996;49.910;35.562;2022-08-05T09:34:50;99415.53;;;29.25;50.99
73692;BME280;61996;49.910;35.562;2022-08-05T09:37:55;99412.47;;;31.60;44.71
73692;BME280;61996;49.910;35.562;2022-08-05T09:41:19;99401.88;;;29.71;49.17
73692;BME280;61996;49.910;35.562;2022-08-05T09:44:36;99399.69;;;28.29;53.30
73692;BME280;61996;49.910;35.562;2022-08-05T09:47:40;99403.41;;;28.01;55.16
73692;BME280;61996;49.910;35.562;2022-08-05T09:50:57;99393.19;;;27.90;54.96
73692;BME280;61996;49.910;35.562;2022-08-05T09:54:03;99376.31;;;27.75;55.72
73692;BME280;61996;49.910;35.562;2022-08-05T09:57:09;99393.56;;;27.80;55.94
73692;BME280;61996;49.910;35.562;2022-08-05T10:00:26;99392.53;;;27.81;55.72
73692;BME280;61996;49.910;35.562;2022-08-05T10:03:35;99387.53;;;27.78;55.40
73692;BME280;61996;49.910;35.562;2022-08-05T10:06:59;99378.00;;;27.82;55.02
73692;BME280;61996;49.910;35.562;2022-08-05T10:10:22;99375.31;;;27.82;55.20
73692;BME280;61996;49.910;35.562;2022-08-05T10:13:33;99373.00;;;27.86;55.07
73692;BME280;61996;49.910;35.562;2022-08-05T10:16:50;99374.88;;;27.85;55.06
73692;BME280;61996;49.910;35.562;2022-08-05T10:19:53;99374.50;;;27.89;54.82
73692;BME280;61996;49.910;35.562;2022-08-05T10:23:10;99373.63;;;27.88;55.16
73692;BME280;61996;49.910;35.562;2022-08-05T10:26:34;99381.13;;;27.93;54.43
73692;BME280;61996;49.910;35.562;2022-08-05T10:29:51;99378.88;;;27.96;54.29
73692;BME280;61996;49.910;35.562;2022-08-05T10:33:15;99380.72;;;28.02;53.71
73692;BME280;61996;49.910;35.562;2022-08-05T10:36:19;99384.91;;;27.98;54.09
73692;BME280;61996;49.910;35.562;2022-08-05T10:39:27;99387.19;;;28.01;53.51
73692;BME280;61996;49.910;35.562;2022-08-05T10:42:51;99386.75;;;27.91;53.95
73692;BME280;61996;49.910;35.562;2022-08-05T10:45:56;99389.66;;;27.83;52.84
73692;BME280;61996;49.910;35.562;2022-08-05T10:49:08;99386.53;;;27.86;53.56
73692;BME280;61996;49.910;35.562;2022-08-05T10:52:36;99392.75;;;27.86;52.47
73692;BME280;61996;49.910;35.562;2022-08-05T10:56:00;99396.31;;;27.94;51.76
73692;BME280;61996;49.910;35.562;2022-08-05T10:59:24;99396.78;;;28.10;51.34
73692;BME280;61996;49.910;35.562;2022-08-05T11:06:28;99397.63;;;28.24;51.46
73692;BME280;61996;49.910;35.562;2022-08-05T11:12:49;99389.34;;;28.32;51.04
73692;BME280;61996;49.910;35.562;2022-08-05T11:16:11;99390.59;;;28.36;51.54
73692;BME280;61996;49.910;35.562;2022-08-05T11:19:37;99386.81;;;28.24;52.24
73692;BME280;61996;49.910;35.562;2022-08-05T11:23:27;99381.59;;;28.23;53.27
73692;BME280;61996;49.910;35.562;2022-08-05T11:30:12;99366.47;;;28.48;50.21
73692;BME280;61996;49.910;35.562;2022-08-05T11:33:25;99373.97;;;28.53;50.25
73692;BME280;61996;49.910;35.562;2022-08-05T11:36:48;99379.78;;;28.43;50.10
73692;BME280;61996;49.910;35.562;2022-08-05T11:39:58;99386.84;;;28.51;49.46
73692;BME280;61996;49.910;35.562;2022-08-05T11:43:04;99375.63;;;28.47;48.69
73692;BME280;61996;49.910;35.562;2022-08-05T11:46:08;99386.66;;;28.46;48.47
73692;BME280;61996;49.910;35.562;2022-08-05T11:49:33;99376.88;;;28.38;49.51
73692;BME280;61996;49.910;35.562;2022-08-05T11:52:36;99396.44;;;28.40;49.93
73692;BME280;61996;49.910;35.562;2022-08-05T11:55:56;99387.06;;;28.56;48.36
73692;BME280;61996;49.910;35.562;2022-08-05T11:58:59;99385.63;;;28.60;48.61
73692;BME280;61996;49.910;35.562;2022-08-05T12:02:03;99379.16;;;28.74;49.18
73692;BME280;61996;49.910;35.562;2022-08-05T12:05:25;99374.38;;;28.96;47.89
73692;BME280;61996;49.910;35.562;2022-08-05T12:08:40;99387.06;;;28.76;49.25
73692;BME280;61996;49.910;35.562;2022-08-05T12:11:53;99380.59;;;28.70;48.23
73692;BME280;61996;49.910;35.562;2022-08-05T12:15:00;99387.50;;;28.66;48.42
73692;BME280;61996;49.910;35.562;2022-08-05T12:18:03;99382.47;;;28.89;48.31
73692;BME280;61996;49.910;35.562;2022-08-05T12:21:13;99379.53;;;28.84;48.42
73692;BME280;61996;49.910;35.562;2022-08-05T12:24:18;99378.53;;;28.92;48.37
73692;BME280;61996;49.910;35.562;2022-08-05T12:27:27;99382.47;;;29.09;47.48
73692;BME280;61996;49.910;35.562;2022-08-05T12:30:36;99379.75;;;29.09;47.27
73692;BME280;61996;49.910;35.562;2022-08-05T12:33:46;99368.69;;;29.11;48.09
73692;BME280;61996;49.910;35.562;2022-08-05T12:36:50;99372.66;;;29.21;48.46
73692;BME280;61996;49.910;35.562;2022-08-05T12:39:55;99374.34;;;28.83;49.13
73692;BME280;61996;49.910;35.562;2022-08-05T12:43:06;99374.34;;;29.09;47.96
73692;BME280;61996;49.910;35.562;2022-08-05T12:46:09;99374.69;;;29.26;48.10
73692;BME280;61996;49.910;35.562;2022-08-05T12:49:40;99374.03;;;29.44;47.16
73692;BME280;61996;49.910;35.562;2022-08-05T12:53:03;99372.72;;;29.60;47.06
73692;BME280;61996;49.910;35.562;2022-08-05T12:56:17;99385.72;;;29.31;47.86
73692;BME280;61996;49.910;35.562;2022-08-05T12:59:45;99377.66;;;29.11;48.94
73692;BME280;61996;49.910;35.562;2022-08-05T13:03:09;99374.56;;;28.88;48.85
73692;BME280;61996;49.910;35.562;2022-08-05T13:06:18;99379.78;;;28.76;49.49
73692;BME280;61996;49.910;35.562;2022-08-05T13:09:21;99373.13;;;28.72;49.24
73692;BME280;61996;49.910;35.562;2022-08-05T13:12:29;99384.56;;;28.74;49.60
73692;BME280;61996;49.910;35.562;2022-08-05T13:15:33;99382.09;;;28.53;50.36
73692;BME280;61996;49.910;35.562;2022-08-05T13:18:51;99376.47;;;28.48;49.99
73692;BME280;61996;49.910;35.562;2022-08-05T13:21:58;99380.59;;;28.50;50.23
73692;BME280;61996;49.910;35.562;2022-08-05T13:25:02;99390.19;;;28.53;50.92
73692;BME280;61996;49.910;35.562;2022-08-05T13:28:08;99376.47;;;28.54;50.83
73692;BME280;61996;49.910;35.562;2022-08-05T13:31:16;99373.31;;;28.44;50.40
73692;BME280;61996;49.910;35.562;2022-08-05T13:34:38;99372.91;;;28.47;50.19
73692;BME280;61996;49.910;35.562;2022-08-05T13:37:43;99366.69;;;28.53;50.93
73692;BME280;61996;49.910;35.562;2022-08-05T13:40:56;99364.81;;;28.93;49.96
73692;BME280;61996;49.910;35.562;2022-08-05T13:44:00;99371.19;;;29.19;49.27
73692;BME280;61996;49.910;35.562;2022-08-05T13:47:05;99365.47;;;29.54;48.02
73692;BME280;61996;49.910;35.562;2022-08-05T13:50:09;99359.50;;;30.15;46.99
73692;BME280;61996;49.910;35.562;2022-08-05T13:53:17;99354.31;;;30.07;48.29
73692;BME280;61996;49.910;35.562;2022-08-05T13:56:20;99353.72;;;30.36;47.16
73692;BME280;61996;49.910;35.562;2022-08-05T13:59:23;99355.03;;;29.57;48.86
73692;BME280;61996;49.910;35.562;2022-08-05T14:02:29;99357.34;;;29.40;49.46
73692;BME280;61996;49.910;35.562;2022-08-05T14:05:33;99347.69;;;29.00;51.51
73692;BME280;61996;49.910;35.562;2022-08-05T14:08:57;99348.66;;;29.25;51.22
73692;BME280;61996;49.910;35.562;2022-08-05T14:12:00;99351.88;;;28.69;52.46
73692;BME280;61996;49.910;35.562;2022-08-05T14:15:18;99365.22;;;28.51;52.71
73692;BME280;61996;49.910;35.562;2022-08-05T14:18:42;99371.25;;;28.39;53.29
73692;BME280;61996;49.910;35.562;2022-08-05T14:21:49;99375.19;;;28.37;53.06
73692;BME280;61996;49.910;35.562;2022-08-05T14:25:12;99394.97;;;28.31;52.87
73692;BME280;61996;49.910;35.562;2022-08-05T14:28:22;99392.00;;;28.19;53.86
73692;BME280;61996;49.910;35.562;2022-08-05T14:31:27;99396.16;;;28.28;52.92
73692;BME280;61996;49.910;35.562;2022-08-05T14:34:54;99394.28;;;28.29;54.63
73692;BME280;61996;49.910;35.562;2022-08-05T14:37:58;99386.59;;;28.19;54.10
73692;BME280;61996;49.910;35.562;2022-08-05T14:41:02;99388.31;;;28.33;53.24
73692;BME280;61996;49.910;35.562;2022-08-05T14:44:08;99386.41;;;28.27;53.48
73692;BME280;61996;49.910;35.562;2022-08-05T14:47:22;99373.34;;;28.37;53.10
73692;BME280;61996;49.910;35.562;2022-08-05T14:50:47;99379.97;;;28.35;53.17
73692;BME280;61996;49.910;35.562;2022-08-05T14:53:50;99396.31;;;27.94;53.83
73692;BME280;61996;49.910;35.562;2022-08-05T14:57:13;99394.97;;;28.31;53.06
73692;BME280;61996;49.910;35.562;2022-08-05T15:00:17;99392.22;;;28.24;53.20
73692;BME280;61996;49.910;35.562;2022-08-05T15:03:29;99398.09;;;29.72;48.70
73692;BME280;61996;49.910;35.562;2022-08-05T15:06:36;99393.09;;;28.91;51.17
73692;BME280;61996;49.910;35.562;2022-08-05T15:09:43;99384.75;;;28.92;50.81
73692;BME280;61996;49.910;35.562;2022-08-05T15:12:54;99385.41;;;28.48;51.88
73692;BME280;61996;49.910;35.562;2022-08-05T15:16:05;99384.56;;;28.48;51.45
73692;BME280;61996;49.910;35.562;2022-08-05T15:19:13;99393.09;;;28.31;52.26
73692;BME280;61996;49.910;35.562;2022-08-05T15:22:25;99398.41;;;27.98;52.97
73692;BME280;61996;49.910;35.562;2022-08-05T15:25:29;99403.84;;;28.05;52.83
73692;BME280;61996;49.910;35.562;2022-08-05T15:28:52;99400.06;;;27.99;52.07
73692;BME280;61996;49.910;35.562;2022-08-05T15:31:54;99393.59;;;27.94;52.52
73692;BME280;61996;49.910;35.562;2022-08-05T15:35:03;99394.06;;;28.04;52.02
73692;BME280;61996;49.910;35.562;2022-08-05T15:38:14;99395.09;;;28.03;51.84
73692;BME280;61996;49.910;35.562;2022-08-05T15:41:36;99400.31;;;28.11;51.55
73692;BME280;61996;49.910;35.562;2022-08-05T15:44:59;99401.34;;;27.55;51.40
73692;BME280;61996;49.910;35.562;2022-08-05T15:48:03;99391.25;;;27.29;52.19
73692;BME280;61996;49.910;35.562;2022-08-05T15:51:07;99391.47;;;27.00;51.39
73692;BME280;61996;49.910;35.562;2022-08-05T15:54:12;99395.41;;;27.04;52.51
73692;BME280;61996;49.910;35.562;2022-08-05T15:57:16;99395.28;;;26.77;53.93
73692;BME280;61996;49.910;35.562;2022-08-05T16:00:19;99392.97;;;26.32;54.06
73692;BME280;61996;49.910;35.562;2022-08-05T16:03:33;99396.44;;;26.26;53.55
73692;BME280;61996;49.910;35.562;2022-08-05T16:06:41;99387.44;;;26.89;52.81
73692;BME280;61996;49.910;35.562;2022-08-05T16:09:45;99386.59;;;26.89;53.06
73692;BME280;61996;49.910;35.562;2022-08-05T16:12:49;99398.84;;;26.63;53.50
73692;BME280;61996;49.910;35.562;2022-08-05T16:15:52;99397.59;;;26.59;52.36
73692;BME280;61996;49.910;35.562;2022-08-05T16:18:55;99394.06;;;26.87;52.60
73692;BME280;61996;49.910;35.562;2022-08-05T16:22:00;99389.09;;;26.90;53.41
73692;BME280;61996;49.910;35.562;2022-08-05T16:25:05;99396.00;;;26.22;53.76
73692;BME280;61996;49.910;35.562;2022-08-05T16:28:10;99398.25;;;26.40;55.09
73692;BME280;61996;49.910;35.562;2022-08-05T16:31:17;99407.50;;;26.52;55.29
73692;BME280;61996;49.910;35.562;2022-08-05T16:34:21;99407.09;;;26.55;55.71
73692;BME280;61996;49.910;35.562;2022-08-05T16:37:26;99409.44;;;26.58;53.90
73692;BME280;61996;49.910;35.562;2022-08-05T16:40:50;99407.63;;;25.86;55.53
73692;BME280;61996;49.910;35.562;2022-08-05T16:44:01;99411.84;;;26.32;55.05
73692;BME280;61996;49.910;35.562;2022-08-05T16:47:04;99415.53;;;26.45;53.37
73692;BME280;61996;49.910;35.562;2022-08-05T16:50:27;99413.63;;;26.03;54.94